Time;durP1;ratioP1;P1;durP2;ratioP2;P2;SDS_P1;SDS_P2;PMS_P1;PMS_P2;Temp;Humidity;BMP_temperature;BMP_pressure;BME280_temperature;BME280_humidity;BME280_pressure;Samples;Min_cycle;Max_cycle;Signal;HPM_P1;HPM_P2
2023/03/01 00:01:37;;;;;;;0.27;0.27;;;;;;;;;;5081776;28;20205;-81
2023/03/01 00:04:04;;;;;;;0.50;0.50;;;;;;;;;;5086802;28;20257;-81
2023/03/01 00:06:30;;;;;;;0.40;0.40;;;;;;;;;;5081812;28;20233;-81
2023/03/01 00:08:58;;;;;;;0.13;0.13;;;;;;;;;;5087737;28;20220;-81
2023/03/01 00:11:27;;;;;;;1.40;0.30;;;;;;;;;;5082030;28;20259;-81
2023/03/01 00:13:56;;;;;;;0.30;0.30;;;;;;;;;;5070817;28;20214;-81
2023/03/01 00:16:26;;;;;;;0.20;0.20;;;;;;;;;;5070560;28;20270;-80
2023/03/01 00:18:54;;;;;;;0.20;0.20;;;;;;;;;;5087917;28;20258;-81
2023/03/01 00:21:22;;;;;;;0.40;0.40;;;;;;;;;;5091132;28;20192;-81
2023/03/01 00:23:49;;;;;;;0.20;0.20;;;;;;;;;;5090441;28;20653;-81
2023/03/01 00:26:19;;;;;;;0.30;0.30;;;;;;;;;;5079812;28;20684;-81
2023/03/01 00:28:46;;;;;;;0.20;0.20;;;;;;;;;;5091825;28;20220;-81
2023/03/01 00:31:14;;;;;;;0.20;0.20;;;;;;;;;;5094932;28;20570;-81
2023/03/01 00:33:41;;;;;;;0.40;0.40;;;;;;;;;;5081551;28;20196;-81
2023/03/01 00:36:09;;;;;;;0.70;0.70;;;;;;;;;;5094208;28;20200;-80
2023/03/01 00:38:36;;;;;;;1.10;0.60;;;;;;;;;;5094512;28;20208;-80
2023/03/01 00:41:06;;;;;;;0.50;0.47;;;;;;;;;;5094636;28;20297;-80
2023/03/01 00:43:37;;;;;;;0.17;0.17;;;;;;;;;;5094788;28;20216;-80
2023/03/01 00:46:04;;;;;;;0.30;0.30;;;;;;;;;;5094586;28;20200;-80
2023/03/01 00:48:31;;;;;;;0.30;0.30;;;;;;;;;;5061235;28;20225;-80
2023/03/01 00:50:58;;;;;;;0.10;0.10;;;;;;;;;;5088177;28;20204;-80
2023/03/01 00:53:24;;;;;;;0.33;0.33;;;;;;;;;;5094476;28;20636;-80
2023/03/01 00:55:51;;;;;;;0.30;0.30;;;;;;;;;;5080208;28;20208;-80
2023/03/01 00:58:18;;;;;;;0.33;0.33;;;;;;;;;;5094938;28;20273;-81
2023/03/01 01:00:46;;;;;;;0.40;0.40;;;;;;;;;;5094278;28;20208;-80
2023/03/01 01:03:13;;;;;;;0.70;0.60;;;;;;;;;;5094613;28;20219;-80
2023/03/01 01:05:40;;;;;;;0.47;0.47;;;;;;;;;;5093732;28;20239;-80
2023/03/01 01:08:06;;;;;;;0.40;0.40;;;;;;;;;;5094203;28;20204;-80
2023/03/01 01:10:35;;;;;;;0.20;0.20;;;;;;;;;;5093685;28;20215;-80
2023/03/01 01:13:01;;;;;;;0.50;0.50;;;;;;;;;;5085661;28;20216;-79
2023/03/01 01:15:28;;;;;;;0.40;0.40;;;;;;;;;;5073915;28;20254;-80
2023/03/01 01:17:56;;;;;;;0.33;0.33;;;;;;;;;;5083045;28;20200;-80
2023/03/01 01:20:23;;;;;;;0.50;0.50;;;;;;;;;;5093852;28;20663;-80
2023/03/01 01:22:51;;;;;;;0.37;0.37;;;;;;;;;;5094050;28;20208;-79
2023/03/01 01:25:17;;;;;;;0.60;0.60;;;;;;;;;;5079692;28;20208;-80
2023/03/01 01:27:44;;;;;;;0.40;0.40;;;;;;;;;;5093597;28;20250;-80
2023/03/01 01:30:12;;;;;;;0.50;0.50;;;;;;;;;;5094077;28;20261;-80
2023/03/01 01:32:39;;;;;;;0.40;0.40;;;;;;;;;;5093537;28;20236;-80
2023/03/01 01:35:08;;;;;;;0.50;0.50;;;;;;;;;;5093705;28;20205;-80
2023/03/01 01:37:35;;;;;;;0.40;0.40;;;;;;;;;;5093572;28;20211;-80
2023/03/01 01:40:03;;;;;;;0.60;0.60;;;;;;;;;;5093346;28;20592;-81
2023/03/01 01:42:31;;;;;;;0.30;0.30;;;;;;;;;;5082866;28;20266;-80
2023/03/01 01:45:30;;;;;;;0.33;0.33;;;;;;;;;;5091019;28;20196;-80
2023/03/01 01:48:00;;;;;;;0.53;0.53;;;;;;;;;;5064846;28;20222;-80
2023/03/01 01:50:37;;;;;;;0.50;0.50;;;;;;;;;;5083096;28;20792;-79
2023/03/01 01:53:06;;;;;;;0.40;0.40;;;;;;;;;;5078174;28;20196;-79
2023/03/01 01:55:33;;;;;;;0.60;0.30;;;;;;;;;;5093099;28;20204;-80
2023/03/01 01:58:04;;;;;;;0.30;0.30;;;;;;;;;;5092661;28;20200;-80
2023/03/01 02:00:31;;;;;;;0.50;0.50;;;;;;;;;;5092899;28;20200;-80
2023/03/01 02:03:01;;;;;;;0.43;0.43;;;;;;;;;;5093219;28;20192;-80
2023/03/01 02:05:34;;;;;;;0.40;0.40;;;;;;;;;;5092579;28;20228;-80
2023/03/01 02:08:01;;;;;;;0.20;0.20;;;;;;;;;;5093562;28;20208;-79
2023/03/01 02:10:29;;;;;;;0.50;0.50;;;;;;;;;;5093208;28;20220;-80
2023/03/01 02:12:56;;;;;;;0.60;0.60;;;;;;;;;;5092946;28;20204;-79
2023/03/01 02:15:24;;;;;;;0.50;0.50;;;;;;;;;;5079275;28;20215;-80
2023/03/01 02:17:51;;;;;;;0.47;0.47;;;;;;;;;;5085289;28;20201;-80
2023/03/01 02:20:26;;;;;;;0.93;0.93;;;;;;;;;;5087336;28;20208;-83
2023/03/01 02:22:54;;;;;;;0.80;0.80;;;;;;;;;;5093167;28;20253;-80
2023/03/01 02:25:35;;;;;;;2.00;0.80;;;;;;;;;;5092581;28;20196;-80
2023/03/01 02:28:07;;;;;;;0.80;0.80;;;;;;;;;;5092376;28;20203;-80
2023/03/01 02:30:35;;;;;;;0.80;0.80;;;;;;;;;;5092456;28;20250;-80
2023/03/01 02:33:03;;;;;;;0.60;0.60;;;;;;;;;;5079309;28;20201;-80
2023/03/01 02:35:31;;;;;;;1.10;1.10;;;;;;;;;;5065781;28;20750;-80
2023/03/01 02:38:00;;;;;;;0.57;0.57;;;;;;;;;;5091922;28;20204;-80
2023/03/01 02:40:29;;;;;;;0.90;0.90;;;;;;;;;;5072444;28;20338;-80
2023/03/01 02:42:58;;;;;;;0.60;0.60;;;;;;;;;;5073583;28;20200;-80
2023/03/01 02:45:25;;;;;;;0.50;0.50;;;;;;;;;;5083419;28;20207;-80
2023/03/01 02:47:56;;;;;;;0.63;0.63;;;;;;;;;;5085424;28;20257;-80
2023/03/01 02:50:35;;;;;;;0.63;0.63;;;;;;;;;;5080851;28;20718;-80
2023/03/01 02:53:05;;;;;;;0.50;0.50;;;;;;;;;;5072974;28;20201;-80
2023/03/01 02:55:32;;;;;;;0.40;0.40;;;;;;;;;;5072212;28;20202;-80
2023/03/01 02:58:01;;;;;;;0.40;0.40;;;;;;;;;;5091029;28;20234;-79
2023/03/01 03:00:34;;;;;;;0.37;0.37;;;;;;;;;;5092167;28;20266;-82
2023/03/01 03:03:02;;;;;;;0.20;0.20;;;;;;;;;;5092398;28;20199;-80
2023/03/01 03:05:31;;;;;;;0.57;0.57;;;;;;;;;;5077485;28;20231;-80
2023/03/01 03:07:59;;;;;;;0.40;0.40;;;;;;;;;;5092069;28;20201;-80
2023/03/01 03:10:28;;;;;;;0.50;0.50;;;;;;;;;;5091133;28;20233;-80
2023/03/01 03:12:56;;;;;;;0.40;0.40;;;;;;;;;;5092050;28;20200;-80
2023/03/01 03:15:24;;;;;;;0.40;0.40;;;;;;;;;;5076897;28;20212;-80
2023/03/01 03:17:51;;;;;;;1.97;0.50;;;;;;;;;;5079608;28;20200;-80
2023/03/01 03:20:22;;;;;;;0.37;0.37;;;;;;;;;;5091018;28;20250;-80
2023/03/01 03:22:52;;;;;;;0.40;0.40;;;;;;;;;;5091523;28;20200;-83
2023/03/01 03:25:20;;;;;;;2.20;2.00;;;;;;;;;;5075322;28;20213;-82
2023/03/01 03:27:48;;;;;;;5.60;4.87;;;;;;;;;;5081657;28;20208;-80
2023/03/01 03:30:18;;;;;;;6.43;4.97;;;;;;;;;;5077822;28;20226;-80
2023/03/01 03:32:51;;;;;;;13.10;6.80;;;;;;;;;;5091272;28;20204;-79
2023/03/01 03:35:20;;;;;;;28.63;12.30;;;;;;;;;;5091028;28;20204;-80
2023/03/01 03:38:02;;;;;;;30.00;13.07;;;;;;;;;;5091898;28;20200;-80
2023/03/01 03:40:31;;;;;;;87.37;32.97;;;;;;;;;;5066460;28;20258;-80
2023/03/01 03:42:57;;;;;;;23.50;10.40;;;;;;;;;;5091085;28;20638;-80
2023/03/01 03:45:24;;;;;;;22.40;14.27;;;;;;;;;;5090862;28;20204;-80
2023/03/01 03:47:51;;;;;;;24.77;17.40;;;;;;;;;;5091091;28;20261;-80
2023/03/01 03:50:18;;;;;;;21.20;17.50;;;;;;;;;;5090893;28;20730;-80
2023/03/01 03:52:46;;;;;;;7.17;5.50;;;;;;;;;;5091481;28;20205;-80
2023/03/01 03:55:14;;;;;;;5.30;4.77;;;;;;;;;;5082090;28;20197;-80
2023/03/01 03:57:42;;;;;;;26.80;19.40;;;;;;;;;;5084280;28;20707;-80
2023/03/01 04:02:56;;;;;;;6.87;5.27;;;;;;;;;;5077486;28;20211;-81
2023/03/01 04:05:23;;;;;;;11.77;9.90;;;;;;;;;;5091040;28;20200;-80
2023/03/01 04:08:00;;;;;;;7.00;6.33;;;;;;;;;;5090859;28;20200;-81
2023/03/01 04:10:28;;;;;;;5.23;4.40;;;;;;;;;;5090383;28;20698;-81
2023/03/01 04:12:55;;;;;;;7.10;5.03;;;;;;;;;;5083577;28;20208;-81
2023/03/01 04:15:23;;;;;;;3.00;2.70;;;;;;;;;;5085123;28;20204;-81
2023/03/01 04:17:52;;;;;;;7.90;5.17;;;;;;;;;;5091143;28;20206;-81
2023/03/01 04:20:24;;;;;;;5.50;4.60;;;;;;;;;;5090212;28;20207;-82
2023/03/01 04:22:54;;;;;;;3.20;2.63;;;;;;;;;;5091003;28;20219;-81
2023/03/01 04:25:21;;;;;;;2.37;2.17;;;;;;;;;;5090230;28;20291;-83
2023/03/01 04:27:47;;;;;;;6.63;4.93;;;;;;;;;;5091112;28;20208;-80
2023/03/01 04:30:15;;;;;;;6.77;4.90;;;;;;;;;;5073758;28;20217;-80
2023/03/01 04:32:41;;;;;;;10.57;9.23;;;;;;;;;;5081348;28;20204;-81
2023/03/01 04:35:09;;;;;;;19.00;11.60;;;;;;;;;;5090223;28;20745;-82
2023/03/01 04:37:35;;;;;;;10.23;6.03;;;;;;;;;;5080034;28;20212;-80
2023/03/01 04:40:12;;;;;;;30.37;20.03;;;;;;;;;;5088115;28;20208;-80
2023/03/01 04:42:39;;;;;;;45.00;29.10;;;;;;;;;;5090614;28;20715;-80
2023/03/01 04:45:12;;;;;;;48.10;35.30;;;;;;;;;;5090190;28;20200;-81
2023/03/01 04:47:40;;;;;;;14.27;11.07;;;;;;;;;;5090886;28;20291;-81
2023/03/01 04:50:07;;;;;;;11.53;9.80;;;;;;;;;;5077270;28;20216;-82
2023/03/01 04:52:34;;;;;;;6.57;5.97;;;;;;;;;;5090241;28;20226;-80
2023/03/01 04:55:01;;;;;;;4.50;4.10;;;;;;;;;;5090571;28;20197;-81
2023/03/01 04:57:29;;;;;;;3.60;3.30;;;;;;;;;;5089796;28;20266;-80
2023/03/01 04:59:56;;;;;;;2.20;2.00;;;;;;;;;;5090707;28;20215;-81
2023/03/01 05:02:23;;;;;;;2.60;1.83;;;;;;;;;;5090350;28;20292;-81
2023/03/01 05:04:50;;;;;;;1.67;1.17;;;;;;;;;;5090484;28;20208;-81
2023/03/01 05:07:19;;;;;;;2.10;1.80;;;;;;;;;;5090081;28;20273;-80
2023/03/01 05:09:45;;;;;;;2.70;2.50;;;;;;;;;;5090265;28;20243;-80
2023/03/01 05:12:12;;;;;;;4.17;3.87;;;;;;;;;;5074323;28;20204;-80
2023/03/01 05:14:41;;;;;;;8.67;7.07;;;;;;;;;;5081355;28;20207;-81
2023/03/01 05:17:08;;;;;;;8.67;7.23;;;;;;;;;;5093994;28;20204;-80
2023/03/01 05:19:35;;;;;;;4.00;3.33;;;;;;;;;;5093752;28;20640;-81
2023/03/01 05:22:04;;;;;;;2.30;2.10;;;;;;;;;;5093552;28;20294;-80
2023/03/01 05:24:32;;;;;;;6.40;5.30;;;;;;;;;;5093914;28;20204;-81
2023/03/01 05:27:00;;;;;;;8.20;6.73;;;;;;;;;;5089901;28;20270;-80
2023/03/01 05:29:28;;;;;;;8.50;7.80;;;;;;;;;;5073633;28;20263;-80
2023/03/01 05:31:58;;;;;;;4.83;4.43;;;;;;;;;;5090756;28;20732;-81
2023/03/01 05:34:25;;;;;;;2.77;2.57;;;;;;;;;;5081679;28;20288;-81
2023/03/01 05:36:53;;;;;;;1.43;1.33;;;;;;;;;;5079004;28;20200;-81
2023/03/01 05:39:22;;;;;;;1.10;0.97;;;;;;;;;;5093733;28;20287;-81
2023/03/01 05:41:49;;;;;;;1.23;0.93;;;;;;;;;;5093122;28;20197;-80
2023/03/01 05:44:15;;;;;;;0.70;0.70;;;;;;;;;;5080517;28;20201;-80
2023/03/01 05:46:42;;;;;;;2.13;2.03;;;;;;;;;;5086584;28;20580;-80
2023/03/01 05:49:10;;;;;;;8.23;7.43;;;;;;;;;;5073295;28;20330;-80
2023/03/01 05:51:38;;;;;;;4.40;3.70;;;;;;;;;;5086467;28;20254;-80
2023/03/01 05:54:05;;;;;;;3.73;2.80;;;;;;;;;;5073187;28;20201;-81
2023/03/01 05:56:34;;;;;;;18.87;12.17;;;;;;;;;;5092874;28;20208;-80
2023/03/01 05:59:00;;;;;;;6.30;4.40;;;;;;;;;;5079467;28;20702;-80
2023/03/01 06:01:29;;;;;;;6.20;4.97;;;;;;;;;;5093117;28;20651;-81
2023/03/01 06:03:56;;;;;;;3.30;2.10;;;;;;;;;;5092732;28;20212;-81
2023/03/01 06:06:24;;;;;;;3.00;2.70;;;;;;;;;;5093445;28;20266;-80
2023/03/01 06:08:52;;;;;;;6.60;5.90;;;;;;;;;;5077271;28;20201;-80
2023/03/01 06:11:18;;;;;;;10.60;7.70;;;;;;;;;;5073715;28;20715;-80
2023/03/01 06:13:46;;;;;;;8.67;7.77;;;;;;;;;;5087233;28;20680;-80
2023/03/01 06:16:13;;;;;;;5.63;5.03;;;;;;;;;;5092852;28;20203;-80
2023/03/01 06:18:40;;;;;;;11.03;8.17;;;;;;;;;;5092093;28;20601;-81
2023/03/01 06:21:09;;;;;;;6.67;6.03;;;;;;;;;;5083810;28;20216;-80
2023/03/01 06:23:37;;;;;;;5.20;3.17;;;;;;;;;;5088436;28;20201;-80
2023/03/01 06:26:06;;;;;;;5.07;3.50;;;;;;;;;;5091858;28;20200;-80
2023/03/01 06:28:33;;;;;;;14.67;10.83;;;;;;;;;;5092349;28;20200;-80
2023/03/01 06:31:00;;;;;;;6.53;5.90;;;;;;;;;;5092245;28;20228;-80
2023/03/01 06:33:26;;;;;;;5.00;4.50;;;;;;;;;;5089353;28;20205;-80
2023/03/01 06:35:56;;;;;;;4.13;3.73;;;;;;;;;;5082146;28;20682;-80
2023/03/01 06:38:23;;;;;;;2.73;2.47;;;;;;;;;;5075266;28;20666;-80
2023/03/01 06:40:54;;;;;;;25.30;18.13;;;;;;;;;;5072320;28;20208;-80
2023/03/01 06:43:21;;;;;;;13.10;11.63;;;;;;;;;;5090552;28;20253;-80
2023/03/01 06:45:51;;;;;;;8.00;4.30;;;;;;;;;;5091861;28;20196;-80
2023/03/01 06:48:18;;;;;;;5.33;4.57;;;;;;;;;;5091998;28;20200;-80
2023/03/01 06:50:44;;;;;;;2.93;2.73;;;;;;;;;;5092418;28;20770;-81
2023/03/01 06:53:11;;;;;;;3.00;2.80;;;;;;;;;;5091679;28;20200;-80
2023/03/01 06:55:38;;;;;;;5.03;4.53;;;;;;;;;;5091713;28;20205;-80
2023/03/01 06:58:06;;;;;;;3.83;3.53;;;;;;;;;;5091982;28;20691;-80
2023/03/01 07:00:33;;;;;;;6.20;5.70;;;;;;;;;;5078462;28;20205;-80
2023/03/01 07:03:01;;;;;;;4.00;3.70;;;;;;;;;;5065238;28;20619;-81
2023/03/01 07:05:28;;;;;;;12.13;9.17;;;;;;;;;;5077578;28;20226;-80
2023/03/01 07:07:56;;;;;;;9.93;8.00;;;;;;;;;;5079423;28;20200;-80
2023/03/01 07:10:22;;;;;;;13.37;10.43;;;;;;;;;;5090677;28;20224;-81
2023/03/01 07:12:49;;;;;;;10.73;7.83;;;;;;;;;;5065153;28;20740;-80
2023/03/01 07:15:17;;;;;;;11.27;7.37;;;;;;;;;;5091276;28;20205;-80
2023/03/01 07:17:47;;;;;;;5.10;4.60;;;;;;;;;;5091200;28;20208;-80
2023/03/01 07:20:14;;;;;;;16.70;8.80;;;;;;;;;;5091612;28;20219;-80
2023/03/01 07:22:41;;;;;;;6.70;5.20;;;;;;;;;;5091934;28;20207;-80
2023/03/01 07:25:09;;;;;;;5.37;4.87;;;;;;;;;;5091260;28;20294;-81
2023/03/01 07:27:36;;;;;;;7.50;6.70;;;;;;;;;;5091075;28;20679;-80
2023/03/01 07:30:03;;;;;;;3.70;3.30;;;;;;;;;;5091012;28;20204;-80
2023/03/01 07:32:31;;;;;;;3.10;2.60;;;;;;;;;;5091023;28;20207;-80
2023/03/01 07:34:57;;;;;;;3.23;2.93;;;;;;;;;;5091111;28;20204;-81
2023/03/01 07:37:24;;;;;;;5.47;3.37;;;;;;;;;;5082036;28;20258;-80
2023/03/01 07:39:51;;;;;;;3.30;2.47;;;;;;;;;;5087110;28;20227;-80
2023/03/01 07:42:18;;;;;;;2.23;2.03;;;;;;;;;;5082191;28;20641;-82
2023/03/01 07:44:44;;;;;;;2.77;2.17;;;;;;;;;;5086921;28;20207;-80
2023/03/01 07:47:11;;;;;;;1.80;1.70;;;;;;;;;;5091339;28;20249;-80
2023/03/01 07:49:39;;;;;;;2.73;1.60;;;;;;;;;;5088456;28;20204;-80
2023/03/01 07:52:06;;;;;;;3.93;2.13;;;;;;;;;;5079986;28;20227;-79
2023/03/01 07:54:33;;;;;;;1.43;1.33;;;;;;;;;;5077583;28;20204;-80
2023/03/01 07:57:00;;;;;;;1.60;1.50;;;;;;;;;;5090834;28;20204;-80
2023/03/01 07:59:28;;;;;;;1.83;1.73;;;;;;;;;;5090942;28;20200;-80
2023/03/01 08:01:55;;;;;;;2.23;1.83;;;;;;;;;;5090796;28;20710;-80
2023/03/01 08:04:24;;;;;;;2.80;1.83;;;;;;;;;;5090970;28;20211;-80
2023/03/01 08:06:52;;;;;;;2.17;1.70;;;;;;;;;;5091032;28;20224;-80
2023/03/01 08:09:19;;;;;;;1.80;1.70;;;;;;;;;;5086151;28;20220;-80
2023/03/01 08:11:46;;;;;;;1.80;1.53;;;;;;;;;;5082136;28;20649;-80
2023/03/01 08:14:13;;;;;;;2.97;2.23;;;;;;;;;;5086171;28;20197;-80
2023/03/01 08:16:39;;;;;;;2.03;1.60;;;;;;;;;;5082222;28;20254;-80
2023/03/01 08:19:06;;;;;;;2.00;1.63;;;;;;;;;;5085145;28;20212;-80
2023/03/01 08:21:34;;;;;;;2.20;2.00;;;;;;;;;;5070549;28;20209;-80
2023/03/01 08:24:03;;;;;;;14.97;7.67;;;;;;;;;;5076311;28;20667;-80
2023/03/01 08:26:29;;;;;;;17.87;12.90;;;;;;;;;;5090796;28;20594;-80
2023/03/01 08:28:56;;;;;;;5.10;2.93;;;;;;;;;;5090676;28;20197;-80
2023/03/01 08:31:27;;;;;;;5.50;3.60;;;;;;;;;;5090594;28;20255;-79
2023/03/01 08:33:55;;;;;;;16.57;9.50;;;;;;;;;;5064841;28;20197;-80
2023/03/01 08:36:23;;;;;;;4.80;3.60;;;;;;;;;;5090238;28;20236;-80
2023/03/01 08:38:50;;;;;;;3.73;3.43;;;;;;;;;;5090407;28;20214;-80
2023/03/01 08:41:18;;;;;;;15.00;8.10;;;;;;;;;;5090138;28;20221;-80
2023/03/01 08:43:47;;;;;;;33.70;18.63;;;;;;;;;;5090286;28;20277;-80
2023/03/01 08:46:14;;;;;;;33.60;17.53;;;;;;;;;;5076891;28;20205;-80
2023/03/01 08:48:42;;;;;;;47.40;24.63;;;;;;;;;;5091613;28;20230;-80
2023/03/01 08:51:10;;;;;;;24.00;12.90;;;;;;;;;;5094268;28;20235;-80
2023/03/01 08:53:37;;;;;;;63.23;34.30;;;;;;;;;;5094150;28;20706;-80
2023/03/01 08:56:04;;;;;;;7.57;5.23;;;;;;;;;;5093689;28;20204;-80
2023/03/01 08:58:32;;;;;;;3.13;2.20;;;;;;;;;;5085172;28;20587;-80
2023/03/01 09:01:00;;;;;;;4.67;2.80;;;;;;;;;;5087383;28;20212;-80
2023/03/01 09:03:27;;;;;;;11.97;7.13;;;;;;;;;;5084444;28;20286;-80
2023/03/01 09:05:54;;;;;;;8.00;6.27;;;;;;;;;;5093566;28;20228;-79
2023/03/01 09:08:21;;;;;;;11.87;8.00;;;;;;;;;;5084023;28;20208;-80
2023/03/01 09:10:47;;;;;;;12.23;8.97;;;;;;;;;;5091192;28;20646;-80
2023/03/01 09:13:14;;;;;;;3.77;3.17;;;;;;;;;;5093931;28;20254;-80
2023/03/01 09:15:42;;;;;;;10.77;8.93;;;;;;;;;;5093672;28;20585;-80
2023/03/01 09:18:09;;;;;;;18.43;10.33;;;;;;;;;;5083760;28;20353;-80
2023/03/01 09:20:36;;;;;;;10.97;8.00;;;;;;;;;;5077795;28;20646;-79
2023/03/01 09:23:03;;;;;;;3.27;2.97;;;;;;;;;;5093733;28;20212;-80
2023/03/01 09:25:30;;;;;;;5.47;4.63;;;;;;;;;;5080261;28;20212;-80
2023/03/01 09:27:56;;;;;;;4.87;4.47;;;;;;;;;;5083059;28;20205;-80
2023/03/01 09:30:24;;;;;;;4.67;3.40;;;;;;;;;;5091439;28;20601;-80
2023/03/01 09:32:52;;;;;;;2.90;2.60;;;;;;;;;;5093807;28;20231;-80
2023/03/01 09:35:19;;;;;;;4.00;3.47;;;;;;;;;;5088602;28;20201;-80
2023/03/01 09:37:47;;;;;;;3.93;3.23;;;;;;;;;;5085780;28;20196;-80
2023/03/01 09:40:16;;;;;;;2.40;2.20;;;;;;;;;;5093464;28;20200;-82
2023/03/01 09:42:50;;;;;;;3.07;2.83;;;;;;;;;;5092926;28;20204;-79
2023/03/01 09:45:25;;;;;;;3.40;3.10;;;;;;;;;;5060363;28;20201;-80
2023/03/01 09:47:54;;;;;;;4.23;2.37;;;;;;;;;;5074243;28;20207;-80
2023/03/01 09:50:21;;;;;;;7.20;4.63;;;;;;;;;;5093642;28;20273;-80
2023/03/01 09:52:51;;;;;;;2.60;2.40;;;;;;;;;;5092770;28;20660;-80
2023/03/01 09:55:23;;;;;;;6.73;4.97;;;;;;;;;;5093128;28;20205;-80
2023/03/01 09:57:54;;;;;;;44.80;27.90;;;;;;;;;;5079911;28;20566;-80
2023/03/01 10:00:28;;;;;;;35.67;22.57;;;;;;;;;;5081670;28;20201;-80
2023/03/01 10:03:00;;;;;;;6.60;5.37;;;;;;;;;;5091850;28;20201;-80
2023/03/01 10:05:35;;;;;;;13.87;11.23;;;;;;;;;;5079948;28;21375;-80
2023/03/01 10:08:19;;;;;;;12.27;8.90;;;;;;;;;;5068602;28;20207;-81
2023/03/01 10:10:48;;;;;;;13.07;8.10;;;;;;;;;;5092540;28;20656;-80
2023/03/01 10:13:19;;;;;;;15.33;9.17;;;;;;;;;;5092629;28;20207;-80
2023/03/01 10:15:55;;;;;;;7.17;5.37;;;;;;;;;;5092954;28;20196;-80
2023/03/01 10:18:26;;;;;;;12.03;7.47;;;;;;;;;;5092710;28;20598;-80
2023/03/01 10:20:55;;;;;;;13.03;8.90;;;;;;;;;;5092136;28;20207;-80
2023/03/01 10:23:23;;;;;;;7.93;6.40;;;;;;;;;;5092262;28;20211;-80
2023/03/01 10:26:05;;;;;;;8.67;5.50;;;;;;;;;;5066473;28;20245;-80
2023/03/01 10:28:40;;;;;;;5.53;4.40;;;;;;;;;;5090282;28;20204;-80
2023/03/01 10:31:13;;;;;;;10.70;7.97;;;;;;;;;;5082708;28;20208;-80
2023/03/01 10:33:42;;;;;;;12.77;8.60;;;;;;;;;;5092412;28;20199;-80
2023/03/01 10:36:09;;;;;;;18.00;13.53;;;;;;;;;;5080358;28;20201;-80
2023/03/01 10:38:52;;;;;;;64.27;33.30;;;;;;;;;;5091088;28;20200;-80
2023/03/01 10:41:24;;;;;;;18.80;16.20;;;;;;;;;;5078817;28;20204;-80
2023/03/01 10:43:53;;;;;;;12.57;9.73;;;;;;;;;;5092288;28;20253;-80
2023/03/01 10:46:29;;;;;;;5.70;5.20;;;;;;;;;;5091993;28;20217;-80
2023/03/01 10:49:16;;;;;;;5.93;5.27;;;;;;;;;;5092155;28;20291;-81
2023/03/01 10:51:45;;;;;;;7.47;5.00;;;;;;;;;;5065617;28;20226;-80
2023/03/01 10:54:19;;;;;;;8.83;7.97;;;;;;;;;;5091985;28;20208;-80
2023/03/01 10:56:50;;;;;;;6.97;5.50;;;;;;;;;;5083933;28;20703;-80
2023/03/01 10:59:28;;;;;;;6.07;5.47;;;;;;;;;;5087123;28;20658;-80
2023/03/01 11:02:16;;;;;;;3.73;3.43;;;;;;;;;;5091814;28;20214;-80
2023/03/01 11:04:57;;;;;;;3.23;2.97;;;;;;;;;;5091873;28;20208;-80
2023/03/01 11:07:24;;;;;;;3.30;3.10;;;;;;;;;;5089538;28;20212;-80
2023/03/01 11:09:51;;;;;;;4.50;3.70;;;;;;;;;;5080203;28;20204;-80
2023/03/01 11:12:18;;;;;;;5.27;3.93;;;;;;;;;;5090198;28;20228;-80
2023/03/01 11:14:48;;;;;;;4.90;4.50;;;;;;;;;;5091789;28;20211;-80
2023/03/01 11:17:18;;;;;;;3.80;3.40;;;;;;;;;;5077457;28;20207;-80
2023/03/01 11:20:04;;;;;;;3.63;3.17;;;;;;;;;;5091689;28;20201;-80
2023/03/01 11:22:32;;;;;;;5.10;4.70;;;;;;;;;;5091298;28;20199;-80
2023/03/01 11:24:59;;;;;;;5.67;5.17;;;;;;;;;;5091289;28;20207;-84
2023/03/01 11:27:27;;;;;;;8.63;7.77;;;;;;;;;;5077701;28;20607;-80
2023/03/01 11:29:57;;;;;;;28.47;21.13;;;;;;;;;;5091224;28;20627;-81
2023/03/01 11:32:26;;;;;;;14.50;13.07;;;;;;;;;;5070843;28;20236;-80
2023/03/01 11:34:58;;;;;;;8.93;8.13;;;;;;;;;;5084692;28;20196;-80
2023/03/01 11:37:33;;;;;;;6.20;5.33;;;;;;;;;;5080066;28;20205;-80
2023/03/01 11:40:06;;;;;;;7.90;5.40;;;;;;;;;;5087425;28;20626;-80
2023/03/01 11:42:43;;;;;;;7.90;6.93;;;;;;;;;;5082587;28;20199;-80
2023/03/01 11:45:12;;;;;;;6.57;5.97;;;;;;;;;;5090653;28;20211;-80
2023/03/01 11:47:49;;;;;;;6.90;6.13;;;;;;;;;;5077758;28;20205;-80
2023/03/01 11:50:24;;;;;;;6.13;5.13;;;;;;;;;;5067153;28;20203;-80
2023/03/01 11:53:01;;;;;;;4.60;4.30;;;;;;;;;;5090487;28;20219;-82
2023/03/01 11:55:51;;;;;;;4.47;4.10;;;;;;;;;;5091212;28;20203;-80
2023/03/01 11:58:32;;;;;;;6.00;4.30;;;;;;;;;;5090850;28;20202;-80
2023/03/01 12:01:07;;;;;;;6.60;5.30;;;;;;;;;;5090486;28;20208;-80
2023/03/01 12:03:45;;;;;;;5.13;4.37;;;;;;;;;;5091379;28;20204;-80
2023/03/01 12:06:33;;;;;;;4.23;3.80;;;;;;;;;;5076978;28;20216;-82
2023/03/01 12:09:12;;;;;;;4.13;3.83;;;;;;;;;;5077405;28;20197;-80
2023/03/01 12:11:49;;;;;;;5.47;4.57;;;;;;;;;;5090717;28;20202;-81
2023/03/01 12:14:35;;;;;;;5.03;4.60;;;;;;;;;;5071793;28;20196;-80
2023/03/01 12:17:21;;;;;;;3.70;3.20;;;;;;;;;;5085791;28;20207;-80
2023/03/01 12:20:02;;;;;;;3.17;2.87;;;;;;;;;;5090774;28;20215;-80
2023/03/01 12:22:31;;;;;;;3.00;2.70;;;;;;;;;;5071406;28;20201;-80
2023/03/01 12:25:13;;;;;;;4.70;4.07;;;;;;;;;;5088626;28;20211;-81
2023/03/01 12:27:56;;;;;;;3.43;3.13;;;;;;;;;;5084428;28;20196;-81
2023/03/01 12:30:33;;;;;;;3.30;3.00;;;;;;;;;;5089421;28;20205;-80
2023/03/01 12:33:11;;;;;;;5.40;4.90;;;;;;;;;;5087881;28;20235;-81
2023/03/01 12:35:50;;;;;;;3.13;2.83;;;;;;;;;;5071119;28;20204;-80
2023/03/01 12:38:27;;;;;;;3.90;3.33;;;;;;;;;;5081334;28;20682;-80
2023/03/01 12:41:20;;;;;;;3.00;2.47;;;;;;;;;;5094518;28;20196;-80
2023/03/01 12:43:56;;;;;;;21.37;14.77;;;;;;;;;;5082777;28;20193;-80
2023/03/01 12:46:33;;;;;;;7.27;6.50;;;;;;;;;;5087867;28;20254;-80
2023/03/01 12:49:05;;;;;;;5.13;4.63;;;;;;;;;;5085830;28;20203;-80
2023/03/01 12:51:34;;;;;;;3.17;2.70;;;;;;;;;;5094787;28;20550;-80
2023/03/01 12:54:03;;;;;;;3.83;3.43;;;;;;;;;;5080989;28;20243;-80
2023/03/01 12:56:33;;;;;;;4.03;3.73;;;;;;;;;;5067919;28;20211;-80
2023/03/01 12:59:04;;;;;;;3.17;2.87;;;;;;;;;;5094007;28;20269;-80
2023/03/01 13:01:38;;;;;;;3.73;3.43;;;;;;;;;;5082323;28;20200;-80
2023/03/01 13:04:18;;;;;;;4.10;3.73;;;;;;;;;;5093817;28;20235;-80
2023/03/01 13:06:52;;;;;;;8.77;7.97;;;;;;;;;;5082470;28;20233;-81
2023/03/01 13:09:27;;;;;;;4.87;4.33;;;;;;;;;;5092622;28;20603;-80
2023/03/01 13:11:55;;;;;;;4.90;4.40;;;;;;;;;;5093492;28;20208;-80
2023/03/01 13:14:45;;;;;;;6.77;6.03;;;;;;;;;;5093197;28;20201;-80
2023/03/01 13:17:33;;;;;;;3.70;3.40;;;;;;;;;;5077906;28;20201;-80
2023/03/01 13:20:00;;;;;;;5.10;4.17;;;;;;;;;;5086816;28;20204;-80
2023/03/01 13:22:31;;;;;;;5.13;4.40;;;;;;;;;;5093852;28;20204;-80
2023/03/01 13:25:14;;;;;;;20.83;14.17;;;;;;;;;;5080808;28;20223;-80
2023/03/01 13:27:42;;;;;;;35.77;26.10;;;;;;;;;;5092838;28;20711;-80
2023/03/01 13:30:40;;;;;;;25.27;21.43;;;;;;;;;;5093694;28;20196;-80
2023/03/01 13:33:54;;;;;;;28.60;23.90;;;;;;;;;;5092900;28;20737;-80
2023/03/01 13:36:47;;;;;;;14.07;12.37;;;;;;;;;;5057995;28;20211;-80
2023/03/01 13:39:31;;;;;;;12.47;11.20;;;;;;;;;;5093513;28;20207;-85
2023/03/01 13:41:59;;;;;;;13.23;11.80;;;;;;;;;;5093436;28;20580;-80
2023/03/01 13:44:34;;;;;;;13.57;11.93;;;;;;;;;;5080111;28;20204;-80
2023/03/01 13:47:14;;;;;;;9.60;8.60;;;;;;;;;;5084658;28;20752;-79
2023/03/01 13:49:45;;;;;;;9.50;8.60;;;;;;;;;;5087226;28;20581;-80
2023/03/01 13:52:36;;;;;;;12.90;11.70;;;;;;;;;;5072776;28;20212;-80
2023/03/01 13:55:04;;;;;;;6.97;6.00;;;;;;;;;;5069659;28;20290;-82
2023/03/01 13:57:36;;;;;;;6.00;5.20;;;;;;;;;;5091311;28;20250;-80
2023/03/01 14:00:05;;;;;;;5.00;4.20;;;;;;;;;;5082907;28;20212;-80
2023/03/01 14:02:34;;;;;;;4.83;4.40;;;;;;;;;;5079368;28;20208;-79
2023/03/01 14:05:01;;;;;;;8.73;7.93;;;;;;;;;;5093401;28;20239;-81
2023/03/01 14:07:30;;;;;;;5.03;4.50;;;;;;;;;;5093007;28;20703;-80
2023/03/01 14:09:59;;;;;;;5.23;4.73;;;;;;;;;;5093001;28;20294;-81
2023/03/01 14:12:35;;;;;;;6.80;5.90;;;;;;;;;;5092310;28;20667;-80
2023/03/01 14:15:06;;;;;;;8.87;7.97;;;;;;;;;;5092698;28;20200;-80
2023/03/01 14:18:00;;;;;;;11.90;10.73;;;;;;;;;;5087082;28;20223;-80
2023/03/01 14:20:29;;;;;;;10.73;9.53;;;;;;;;;;5074269;28;20637;-80
2023/03/01 14:22:57;;;;;;;8.40;6.53;;;;;;;;;;5093044;28;20207;-80
2023/03/01 14:25:29;;;;;;;12.73;10.40;;;;;;;;;;5092296;28;20196;-79
2023/03/01 14:27:59;;;;;;;19.27;15.80;;;;;;;;;;5081034;28;20205;-80
2023/03/01 14:30:32;;;;;;;10.43;9.27;;;;;;;;;;5091502;28;20632;-80
2023/03/01 14:33:00;;;;;;;10.20;9.10;;;;;;;;;;5092516;28;20259;-80
2023/03/01 14:35:29;;;;;;;8.50;7.33;;;;;;;;;;5092336;28;20204;-80
2023/03/01 14:37:55;;;;;;;7.10;6.40;;;;;;;;;;5079206;28;20274;-80
2023/03/01 14:40:28;;;;;;;13.27;11.67;;;;;;;;;;5085033;28;20569;-80
2023/03/01 14:42:57;;;;;;;27.37;21.93;;;;;;;;;;5085493;28;20232;-80
2023/03/01 14:45:28;;;;;;;29.00;22.80;;;;;;;;;;5080199;28;20203;-80
2023/03/01 14:47:55;;;;;;;14.90;12.93;;;;;;;;;;5078221;28;20232;-81
2023/03/01 14:50:28;;;;;;;17.13;15.37;;;;;;;;;;5082677;28;20193;-80
2023/03/01 14:52:56;;;;;;;14.20;12.67;;;;;;;;;;5088967;28;20223;-80
2023/03/01 14:55:27;;;;;;;11.73;10.50;;;;;;;;;;5081241;28;20258;-80
2023/03/01 14:57:54;;;;;;;14.77;13.20;;;;;;;;;;5089562;28;20200;-80
2023/03/01 15:00:23;;;;;;;12.43;11.23;;;;;;;;;;5081228;28;20258;-80